Time;durP1;ratioP1;P1;durP2;ratioP2;P2;SDS_P1;SDS_P2;PMS_P1;PMS_P2;Temp;Humidity;BMP_temperature;BMP_pressure;BME280_temperature;BME280_humidity;BME280_pressure;Samples;Min_cycle;Max_cycle;Signal;HPM_P1;HPM_P2
2021/04/21 00:00:35;;;;;;;;;;;;;;;6.65;85.94;98787.53;4981647;28;19914;-82
2021/04/21 00:03:02;;;;;;;;;;;;;;;6.66;85.94;98791.06;4978684;28;20293;-81
2021/04/21 00:05:28;;;;;;;;;;;;;;;6.73;85.84;98783.56;4978210;28;19914;-82
2021/04/21 00:07:54;;;;;;;;;;;;;;;6.75;85.08;98785.91;4978133;28;20016;-82
2021/04/21 00:10:21;;;;;;;;;;;;;;;6.80;84.91;98788.97;4990986;28;19928;-82
2021/04/21 00:12:48;;;;;;;;;;;;;;;6.88;86.48;98786.91;4997960;28;19995;-81
2021/04/21 00:15:14;;;;;;;;;;;;;;;6.93;85.40;98780.97;4997543;28;20365;-81
2021/04/21 00:17:42;;;;;;;;;;;;;;;6.93;85.40;98775.50;4997342;28;19917;-81
2021/04/21 00:20:08;;;;;;;;;;;;;;;6.94;84.37;98782.50;4997446;28;19996;-82
2021/04/21 00:22:33;;;;;;;;;;;;;;;7.05;84.15;98785.16;4978939;28;20390;-82
2021/04/21 00:24:59;;;;;;;;;;;;;;;7.12;82.97;98783.09;4977779;28;19913;-83
2021/04/21 00:27:26;;;;;;;;;;;;;;;7.11;83.25;98787.03;4977792;28;19925;-82
2021/04/21 00:29:53;;;;;;;;;;;;;;;7.13;82.85;98784.66;4977719;28;19917;-81
2021/04/21 00:32:19;;;;;;;;;;;;;;;7.10;82.65;98790.97;4977388;28;19914;-81
2021/04/21 00:34:46;;;;;;;;;;;;;;;7.17;82.24;98779.88;4977535;28;19968;-81
2021/04/21 00:37:12;;;;;;;;;;;;;;;7.18;82.65;98789.69;4977760;28;19914;-80
2021/04/21 00:39:40;;;;;;;;;;;;;;;7.16;83.88;98791.31;4984698;28;19920;-80
2021/04/21 00:42:10;;;;;;;;;;;;;;;7.15;83.48;98787.78;4997059;28;19917;-81
2021/04/21 00:44:54;;;;;;;;;;;;;;;7.24;83.75;98785.28;4984449;28;19917;-80
2021/04/21 00:47:38;;;;;;;;;;;;;;;7.26;84.94;98787.63;4977259;28;19941;-81
2021/04/21 00:50:11;;;;;;;;;;;;;;;7.35;83.58;98796.16;4978251;28;19920;-81
2021/04/21 00:52:48;;;;;;;;;;;;;;;7.31;83.34;98804.44;4977931;28;19920;-82
2021/04/21 00:55:18;;;;;;;;;;;;;;;7.41;80.71;98802.78;4977590;28;19921;-82
2021/04/21 00:58:02;;;;;;;;;;;;;;;7.48;79.97;98793.63;4996628;28;19920;-80
2021/04/21 01:00:30;;;;;;;;;;;;;;;7.56;79.53;98798.63;4997078;28;20362;-80
2021/04/21 01:02:55;;;;;;;;;;;;;;;7.63;79.82;98795.78;4996679;28;20333;-81
2021/04/21 01:05:25;;;;;;;;;;;;;;;7.61;80.95;98797.38;4996781;28;19913;-80
2021/04/21 01:07:53;;;;;;;;;;;;;;;7.58;81.43;98792.72;4981548;28;20013;-80
2021/04/21 01:10:19;;;;;;;;;;;;;;;7.49;83.41;98784.97;4994079;28;19917;-81
2021/04/21 01:12:46;;;;;;;;;;;;;;;7.43;83.46;98794.09;4996346;28;19917;-80
2021/04/21 01:15:12;;;;;;;;;;;;;;;7.39;83.94;98790.63;4996354;28;19914;-80
2021/04/21 01:17:40;;;;;;;;;;;;;;;7.41;84.11;98797.28;4986599;28;19913;-79
2021/04/21 01:20:11;;;;;;;;;;;;;;;7.48;84.27;98783.41;4976837;28;20370;-80
2021/04/21 01:22:42;;;;;;;;;;;;;;;7.48;82.69;98793.63;4980512;28;19914;-80
2021/04/21 01:25:10;;;;;;;;;;;;;;;7.55;80.23;98790.78;4996702;28;19921;-79
2021/04/21 01:27:41;;;;;;;;;;;;;;;7.65;79.10;98784.38;4977420;28;19973;-80
2021/04/21 01:30:08;;;;;;;;;;;;;;;7.74;79.87;98790.13;4976898;28;19913;-81
2021/04/21 01:32:34;;;;;;;;;;;;;;;7.75;80.92;98783.44;4976637;28;19914;-81
2021/04/21 01:35:00;;;;;;;;;;;;;;;7.77;80.39;98783.81;4976996;28;19914;-80
2021/04/21 01:37:28;;;;;;;;;;;;;;;7.82;80.47;98782.56;4976539;28;19921;-81
2021/04/21 01:40:01;;;;;;;;;;;;;;;7.86;80.69;98777.78;4976522;28;20301;-80
2021/04/21 01:42:28;;;;;;;;;;;;;;;7.82;80.84;98779.81;4976643;28;19914;-80
2021/04/21 01:44:55;;;;;;;;;;;;;;;7.71;81.52;98779.97;4976654;28;20382;-80
2021/04/21 01:47:22;;;;;;;;;;;;;;;7.70;81.26;98779.19;4995501;28;19963;-81
2021/04/21 01:49:56;;;;;;;;;;;;;;;7.72;82.00;98781.50;4995904;28;19914;-80
2021/04/21 01:52:21;;;;;;;;;;;;;;;7.56;83.63;98787.63;4983836;28;20012;-80
2021/04/21 01:54:48;;;;;;;;;;;;;;;7.44;82.94;98776.41;4977068;28;20368;-82
2021/04/21 01:57:36;;;;;;;;;;;;;;;7.41;82.44;98778.03;4987481;28;20017;-80
2021/04/21 02:00:15;;;;;;;;;;;;;;;7.42;81.88;98781.53;4995122;28;19913;-81
2021/04/21 02:02:44;;;;;;;;;;;;;;;7.48;81.42;98785.38;4996415;28;19914;-80
2021/04/21 02:05:33;;;;;;;;;;;;;;;7.54;81.49;98787.25;4996053;28;19924;-81
2021/04/21 02:08:15;;;;;;;;;;;;;;;7.53;81.07;98790.44;4992422;28;19964;-80
2021/04/21 02:10:47;;;;;;;;;;;;;;;7.48;81.95;98794.41;4993777;28;19918;-81
2021/04/21 02:13:18;;;;;;;;;;;;;;;7.46;81.96;98794.06;4980270;28;19914;-81
2021/04/21 02:15:52;;;;;;;;;;;;;;;7.52;81.38;98795.16;4980830;28;20281;-80
2021/04/21 02:18:17;;;;;;;;;;;;;;;7.44;81.45;98795.66;4980162;28;19914;-80
2021/04/21 02:20:45;;;;;;;;;;;;;;;7.42;81.36;98785.06;4980094;28;19921;-81
2021/04/21 02:23:25;;;;;;;;;;;;;;;7.56;81.02;98792.34;4980048;28;19917;-81
2021/04/21 02:25:59;;;;;;;;;;;;;;;7.64;80.19;98794.59;4979804;28;19989;-80
2021/04/21 02:28:28;;;;;;;;;;;;;;;7.66;79.91;98792.19;4979829;28;19917;-81
2021/04/21 02:31:12;;;;;;;;;;;;;;;7.71;80.72;98790.97;4979961;28;20370;-80
2021/04/21 02:33:43;;;;;;;;;;;;;;;7.57;81.89;98793.91;4980002;28;19920;-80
2021/04/21 02:36:15;;;;;;;;;;;;;;;7.59;81.14;98794.28;4979683;28;19914;-80
2021/04/21 02:38:40;;;;;;;;;;;;;;;7.65;79.96;98787.91;4980383;28;20373;-80
2021/04/21 02:41:13;;;;;;;;;;;;;;;7.65;78.99;98790.66;4979668;28;19921;-80
2021/04/21 02:43:57;;;;;;;;;;;;;;;7.70;78.74;98789.41;4980139;28;19996;-80
2021/04/21 02:46:26;;;;;;;;;;;;;;;7.75;80.59;98788.94;4979518;28;19921;-79
2021/04/21 02:48:54;;;;;;;;;;;;;;;7.76;80.07;98796.78;4979621;28;19921;-80
2021/04/21 02:51:26;;;;;;;;;;;;;;;7.75;78.92;98791.69;4979415;28;19925;-80
2021/04/21 02:53:59;;;;;;;;;;;;;;;7.68;79.33;98792.56;4979396;28;20016;-80
2021/04/21 02:56:36;;;;;;;;;;;;;;;7.64;80.64;98800.09;4979531;28;19920;-80
2021/04/21 02:59:24;;;;;;;;;;;;;;;7.55;80.33;98802.56;4985919;28;19920;-81
2021/04/21 03:02:08;;;;;;;;;;;;;;;7.45;82.13;98802.72;4979282;28;19945;-80
2021/04/21 03:04:34;;;;;;;;;;;;;;;7.42;82.18;98800.78;4996110;28;19917;-80
2021/04/21 03:07:01;;;;;;;;;;;;;;;7.47;80.76;98811.34;4979253;28;19918;-81
2021/04/21 03:09:30;;;;;;;;;;;;;;;7.40;81.19;98811.41;4995144;28;19960;-82
2021/04/21 03:11:57;;;;;;;;;;;;;;;7.34;80.88;98811.88;4995141;28;19913;-81
2021/04/21 03:14:27;;;;;;;;;;;;;;;7.21;81.31;98819.09;4995528;28;19945;-81
2021/04/21 03:16:57;;;;;;;;;;;;;;;7.25;81.72;98814.34;4995935;28;20393;-81
2021/04/21 03:19:27;;;;;;;;;;;;;;;7.18;84.08;98819.91;4988698;28;20000;-80
2021/04/21 03:22:00;;;;;;;;;;;;;;;7.07;84.22;98815.72;4979042;28;20008;-82
2021/04/21 03:24:28;;;;;;;;;;;;;;;7.07;83.34;98819.25;4979011;28;19920;-81
2021/04/21 03:26:56;;;;;;;;;;;;;;;7.06;82.43;98820.44;4978889;28;20388;-82
2021/04/21 03:29:41;;;;;;;;;;;;;;;7.00;82.74;98821.31;4978996;28;19922;-82
2021/04/21 03:32:18;;;;;;;;;;;;;;;6.83;84.81;98823.06;4979452;28;19921;-82
2021/04/21 03:34:45;;;;;;;;;;;;;;;6.86;85.36;98825.00;4978972;28;19913;-80
2021/04/21 03:37:34;;;;;;;;;;;;;;;6.80;84.16;98848.59;4978394;28;19913;-82
2021/04/21 03:40:00;;;;;;;;;;;;;;;6.69;84.32;98843.19;4970951;28;20008;-82
2021/04/21 03:42:25;;;;;;;;;;;;;;;6.70;84.13;98846.72;4978576;28;19914;-81
2021/04/21 03:44:52;;;;;;;;;;;;;;;6.82;83.60;98857.19;4978475;28;19920;-82
2021/04/21 03:47:17;;;;;;;;;;;;;;;6.82;82.61;98848.94;4978422;28;19913;-81
2021/04/21 03:49:43;;;;;;;;;;;;;;;6.83;84.36;98850.50;4987888;28;19971;-83
2021/04/21 03:52:10;;;;;;;;;;;;;;;6.89;84.05;98852.41;4997777;28;19914;-81
2021/04/21 03:54:37;;;;;;;;;;;;;;;7.04;84.23;98844.03;4997786;28;19921;-82
2021/04/21 03:57:03;;;;;;;;;;;;;;;7.67;83.02;98857.00;4997641;28;20004;-80
2021/04/21 03:59:30;;;;;;;;;;;;;;;8.61;77.04;98854.47;4997735;28;19913;-78
2021/04/21 04:01:56;;;;;;;;;;;;;;;9.37;72.54;98859.72;4997669;28;19913;-79
2021/04/21 04:04:24;;;;;;;;;;;;;;;10.13;68.54;98862.41;4998031;28;20001;-78
2021/04/21 04:06:51;;;;;;;;;;;;;;;10.75;66.69;98864.13;4997517;28;20377;-78
2021/04/21 04:09:19;;;;;;;;;;;;;;;11.01;65.05;98874.09;4997337;28;19917;-78
2021/04/21 04:11:45;;;;;;;;;;;;;;;11.25;64.77;98876.63;4993970;28;20289;-79
2021/04/21 04:14:16;;;;;;;;;;;;;;;11.17;63.73;98873.28;4993910;28;19921;-78
2021/04/21 04:16:43;;;;;;;;;;;;;;;11.51;64.04;98880.28;4994198;28;19909;-78
2021/04/21 04:19:10;;;;;;;;;;;;;;;11.81;63.16;98879.81;4994302;28;19918;-79
2021/04/21 04:21:36;;;;;;;;;;;;;;;12.36;61.38;98886.03;4993620;28;19916;-78
2021/04/21 04:24:02;;;;;;;;;;;;;;;13.26;58.69;98891.78;4994195;28;19913;-78
2021/04/21 04:26:27;;;;;;;;;;;;;;;14.00;56.37;98895.84;5003599;28;19913;-78
2021/04/21 04:28:54;;;;;;;;;;;;;;;14.25;55.04;98898.44;4997347;28;19924;-77
2021/04/21 04:31:20;;;;;;;;;;;;;;;14.38;54.49;98901.94;4996806;28;19916;-79
2021/04/21 04:33:46;;;;;;;;;;;;;;;14.95;53.02;98892.03;4996811;28;19960;-76
2021/04/21 04:36:12;;;;;;;;;;;;;;;15.68;50.73;98908.00;4996740;28;19918;-78
2021/04/21 04:38:38;;;;;;;;;;;;;;;16.35;49.40;98907.69;4996815;28;20293;-78
2021/04/21 04:41:03;;;;;;;;;;;;;;;16.26;48.63;98911.31;4996697;28;19952;-80
2021/04/21 04:43:29;;;;;;;;;;;;;;;16.06;49.30;98908.25;4996804;28;20043;-77
2021/04/21 04:45:56;;;;;;;;;;;;;;;16.64;48.48;98909.94;4996523;28;19921;-77
2021/04/21 04:48:25;;;;;;;;;;;;;;;16.44;48.80;98912.47;4996661;28;19917;-79
2021/04/21 04:50:52;;;;;;;;;;;;;;;16.80;49.12;98909.56;4977894;28;19918;-76
2021/04/21 04:53:17;;;;;;;;;;;;;;;17.27;46.67;98917.16;4977036;28;19917;-80
2021/04/21 04:55:43;;;;;;;;;;;;;;;17.83;45.59;98918.28;4977130;28;20374;-79
2021/04/21 04:58:11;;;;;;;;;;;;;;;18.26;44.73;98920.28;4976805;28;20370;-78
2021/04/21 05:00:38;;;;;;;;;;;;;;;18.61;44.40;98933.59;4980318;28;19967;-80
2021/04/21 05:03:06;;;;;;;;;;;;;;;18.96;42.71;98936.41;4996185;28;20400;-80
2021/04/21 05:05:34;;;;;;;;;;;;;;;19.73;40.71;98930.25;4996846;28;19966;-77
2021/04/21 05:08:05;;;;;;;;;;;;;;;20.29;39.87;98929.56;4995814;28;20369;-77
2021/04/21 05:10:36;;;;;;;;;;;;;;;21.29;37.43;98923.88;4994474;28;19913;-76
2021/04/21 05:13:05;;;;;;;;;;;;;;;21.65;36.60;98924.25;4976654;28;20012;-76
2021/04/21 05:16:00;;;;;;;;;;;;;;;21.86;35.86;98926.38;4976236;28;19913;-76
2021/04/21 05:18:44;;;;;;;;;;;;;;;22.46;34.63;98918.53;4976236;28;20369;-79
2021/04/21 05:21:15;;;;;;;;;;;;;;;23.17;33.23;98932.25;4975942;28;19945;-79
2021/04/21 05:24:10;;;;;;;;;;;;;;;24.24;31.23;98928.44;4976487;28;19917;-76
2021/04/21 05:26:49;;;;;;;;;;;;;;;24.67;29.79;98928.59;4957431;28;20453;-76
2021/04/21 05:29:26;;;;;;;;;;;;;;;25.36;29.09;98931.00;4975909;28;19918;-76
2021/04/21 05:31:58;;;;;;;;;;;;;;;25.73;28.35;98933.88;4975929;28;20004;-75
2021/04/21 05:34:23;;;;;;;;;;;;;;;25.98;27.46;98936.66;4976446;28;20298;-75
2021/04/21 05:37:07;;;;;;;;;;;;;;;26.41;27.24;98925.16;4976076;28;19914;-74
2021/04/21 05:40:01;;;;;;;;;;;;;;;26.72;26.40;98930.81;4976274;28;20324;-76
2021/04/21 05:42:45;;;;;;;;;;;;;;;26.93;26.16;98933.84;4975801;28;19981;-78
2021/04/21 05:45:29;;;;;;;;;;;;;;;27.03;25.91;98937.00;4976256;28;19918;-76
2021/04/21 05:47:55;;;;;;;;;;;;;;;27.44;24.59;98942.13;4976449;28;19913;-79
2021/04/21 05:50:20;;;;;;;;;;;;;;;26.93;25.87;98933.06;4976644;28;20086;-76
2021/04/21 05:52:51;;;;;;;;;;;;;;;26.85;24.76;98944.25;4976135;28;20286;-77
2021/04/21 05:55:26;;;;;;;;;;;;;;;26.37;26.21;98931.16;4976293;28;19913;-75
2021/04/21 05:57:51;;;;;;;;;;;;;;;26.43;25.61;98934.66;4975939;28;19920;-74
2021/04/21 06:00:35;;;;;;;;;;;;;;;26.23;26.71;98935.22;4976178;28;19914;-76
2021/04/21 06:03:02;;;;;;;;;;;;;;;26.38;25.33;98934.75;4975253;28;19917;-76
2021/04/21 06:05:28;;;;;;;;;;;;;;;26.60;25.79;98934.38;4975452;28;20374;-76
2021/04/21 06:07:53;;;;;;;;;;;;;;;27.73;24.78;98938.19;4975659;28;19921;-77
2021/04/21 06:10:29;;;;;;;;;;;;;;;27.55;24.09;98941.19;4975435;28;19917;-77
2021/04/21 06:12:57;;;;;;;;;;;;;;;27.77;23.08;98941.47;4976113;28;20346;-75
2021/04/21 06:15:23;;;;;;;;;;;;;;;26.80;25.90;98941.53;4976039;28;20405;-75
2021/04/21 06:17:51;;;;;;;;;;;;;;;26.07;26.09;98941.91;4975993;28;20349;-76
2021/04/21 06:20:27;;;;;;;;;;;;;;;25.62;27.49;98944.59;4975985;28;19921;-74
2021/04/21 06:22:59;;;;;;;;;;;;;;;24.99;27.00;98946.56;4976354;28;19937;-77
2021/04/21 06:25:25;;;;;;;;;;;;;;;26.30;25.12;98941.06;4976065;28;19940;-76
2021/04/21 06:28:04;;;;;;;;;;;;;;;27.70;24.35;98944.22;4975971;28;19996;-76
2021/04/21 06:30:30;;;;;;;;;;;;;;;29.09;22.33;98944.50;4976116;28;19936;-73
2021/04/21 06:32:59;;;;;;;;;;;;;;;28.32;24.05;98942.31;4975733;28;20366;-76
2021/04/21 06:35:28;;;;;;;;;;;;;;;28.53;23.39;98942.31;4975558;28;19921;-75
2021/04/21 06:37:53;;;;;;;;;;;;;;;24.78;27.93;98936.19;4975655;28;20377;-74
2021/04/21 06:40:23;;;;;;;;;;;;;;;26.68;26.07;98929.63;4975603;28;19914;-74
2021/04/21 06:42:49;;;;;;;;;;;;;;;28.22;23.41;98929.88;4975752;28;19914;-75
2021/04/21 06:45:21;;;;;;;;;;;;;;;29.47;21.77;98926.94;4975578;28;19914;-74
2021/04/21 06:47:46;;;;;;;;;;;;;;;29.71;20.95;98926.47;4975882;28;19948;-75
2021/04/21 06:50:12;;;;;;;;;;;;;;;29.55;22.29;98924.88;4976072;28;19917;-76
2021/04/21 06:52:38;;;;;;;;;;;;;;;28.59;23.41;98931.56;4975446;28;19914;-75
2021/04/21 06:55:08;;;;;;;;;;;;;;;28.53;22.26;98925.25;4978484;28;19914;-74
2021/04/21 06:57:34;;;;;;;;;;;;;;;29.39;20.89;98932.56;4979158;28;19920;-74
2021/04/21 07:00:02;;;;;;;;;;;;;;;30.18;20.73;98931.78;4979470;28;19917;-74
2021/04/21 07:02:38;;;;;;;;;;;;;;;29.98;19.18;98931.91;4978936;28;20055;-75
2021/04/21 07:05:04;;;;;;;;;;;;;;;29.99;20.13;98930.56;4979116;28;19968;-75
2021/04/21 07:07:29;;;;;;;;;;;;;;;30.64;19.49;98934.72;4978814;28;19920;-74
2021/04/21 07:09:55;;;;;;;;;;;;;;;29.12;20.86;98936.91;4975513;28;19921;-74
2021/04/21 07:12:21;;;;;;;;;;;;;;;26.71;22.35;98934.19;4975520;28;19914;-75
2021/04/21 07:14:48;;;;;;;;;;;;;;;26.12;23.15;98941.81;4975544;28;19949;-75
2021/04/21 07:17:14;;;;;;;;;;;;;;;28.24;22.15;98935.78;4975693;28;19914;-74
2021/04/21 07:19:40;;;;;;;;;;;;;;;27.94;20.80;98933.34;4975518;28;19914;-74
2021/04/21 07:22:05;;;;;;;;;;;;;;;27.66;22.87;98940.94;4975399;28;19920;-76
2021/04/21 07:24:32;;;;;;;;;;;;;;;28.33;20.84;98937.41;4975342;28;19914;-76
2021/04/21 07:26:58;;;;;;;;;;;;;;;28.14;21.63;98939.66;4975474;28;19969;-75
2021/04/21 07:29:24;;;;;;;;;;;;;;;27.67;20.62;98933.97;4975631;28;19922;-77
2021/04/21 07:31:50;;;;;;;;;;;;;;;24.65;25.09;98936.84;4975371;28;19921;-75
2021/04/21 07:34:26;;;;;;;;;;;;;;;23.26;27.94;98943.28;4975436;28;19914;-76
2021/04/21 07:36:51;;;;;;;;;;;;;;;24.36;27.99;98940.41;4975329;28;20005;-75
2021/04/21 07:39:16;;;;;;;;;;;;;;;26.05;26.72;98939.59;4975162;28;19914;-75
2021/04/21 07:41:46;;;;;;;;;;;;;;;26.07;25.28;98945.50;4975312;28;19930;-74
2021/04/21 07:44:25;;;;;;;;;;;;;;;24.64;28.92;98938.13;4975052;28;19914;-75
2021/04/21 07:46:54;;;;;;;;;;;;;;;24.21;27.79;98946.44;4975209;28;19924;-75
2021/04/21 07:49:27;;;;;;;;;;;;;;;23.91;26.58;98935.81;4974914;28;20012;-76
2021/04/21 07:51:52;;;;;;;;;;;;;;;23.19;29.01;98940.97;4975419;28;20283;-76
2021/04/21 07:54:18;;;;;;;;;;;;;;;21.36;30.33;98943.06;4975237;28;19973;-77
2021/04/21 07:57:02;;;;;;;;;;;;;;;21.01;30.49;98940.56;4975446;28;19936;-77
2021/04/21 07:59:32;;;;;;;;;;;;;;;20.58;31.90;98936.19;4974968;28;19914;-78
2021/04/21 08:02:03;;;;;;;;;;;;;;;20.56;32.12;98939.47;4974835;28;19914;-76
2021/04/21 08:04:29;;;;;;;;;;;;;;;20.65;32.07;98939.31;4974621;28;19921;-76
2021/04/21 08:06:56;;;;;;;;;;;;;;;19.90;35.26;98934.78;4975349;28;20294;-77
2021/04/21 08:09:22;;;;;;;;;;;;;;;19.75;36.45;98936.16;4974717;28;19918;-77
2021/04/21 08:12:06;;;;;;;;;;;;;;;19.88;37.62;98930.94;4975072;28;19914;-77
2021/04/21 08:14:38;;;;;;;;;;;;;;;20.17;38.11;98930.72;4974966;28;19914;-76
2021/04/21 08:17:03;;;;;;;;;;;;;;;20.37;37.72;98931.94;4974763;28;19921;-77
2021/04/21 08:19:34;;;;;;;;;;;;;;;20.19;39.49;98933.03;4974769;28;19914;-76
2021/04/21 08:21:59;;;;;;;;;;;;;;;20.25;37.99;98928.25;4974926;28;19914;-78
2021/04/21 08:24:24;;;;;;;;;;;;;;;20.82;38.43;98919.75;4974671;28;20437;-77
2021/04/21 08:26:52;;;;;;;;;;;;;;;20.51;38.52;98925.41;4974746;28;20012;-77
2021/04/21 08:29:17;;;;;;;;;;;;;;;20.33;36.66;98914.53;4974639;28;19925;-76
2021/04/21 08:31:45;;;;;;;;;;;;;;;20.43;39.42;98918.72;4974478;28;19914;-77
2021/04/21 08:34:11;;;;;;;;;;;;;;;20.56;33.44;98916.25;4974717;28;19918;-77
2021/04/21 08:36:36;;;;;;;;;;;;;;;20.68;37.55;98912.25;4974697;28;19921;-78
2021/04/21 08:39:02;;;;;;;;;;;;;;;20.84;38.87;98919.25;4974584;28;19914;-77
2021/04/21 08:41:28;;;;;;;;;;;;;;;21.32;36.60;98908.03;4974435;28;19937;-77
2021/04/21 08:43:54;;;;;;;;;;;;;;;21.76;37.67;98911.00;4974385;28;19914;-77
2021/04/21 08:46:20;;;;;;;;;;;;;;;21.33;34.60;98909.59;4975610;28;20420;-78
2021/04/21 08:48:45;;;;;;;;;;;;;;;20.92;35.04;98909.84;4974441;28;19914;-77
2021/04/21 08:51:16;;;;;;;;;;;;;;;20.99;34.92;98912.19;4974318;28;19921;-78
2021/04/21 08:53:42;;;;;;;;;;;;;;;20.93;36.68;98911.41;4974231;28;19921;-77
2021/04/21 08:56:08;;;;;;;;;;;;;;;20.58;38.14;98903.25;4974221;28;19914;-77
2021/04/21 08:58:34;;;;;;;;;;;;;;;20.10;38.60;98911.53;4974042;28;19914;-77
2021/04/21 09:01:00;;;;;;;;;;;;;;;19.78;41.73;98904.31;4974106;28;19950;-76
2021/04/21 09:03:25;;;;;;;;;;;;;;;19.70;40.69;98900.41;4973944;28;19914;-77
2021/04/21 09:05:50;;;;;;;;;;;;;;;19.50;43.69;98901.22;4974002;28;20412;-77
2021/04/21 09:08:17;;;;;;;;;;;;;;;19.44;43.10;98903.16;4976535;28;20358;-76
2021/04/21 09:10:42;;;;;;;;;;;;;;;19.10;43.63;98901.97;4976980;28;19913;-77
2021/04/21 09:13:10;;;;;;;;;;;;;;;19.14;43.54;98896.16;4977122;28;19921;-77
2021/04/21 09:15:35;;;;;;;;;;;;;;;19.16;44.00;98894.41;4977123;28;19913;-76
2021/04/21 09:18:00;;;;;;;;;;;;;;;19.06;39.51;98893.00;4977022;28;20377;-77
2021/04/21 09:20:26;;;;;;;;;;;;;;;19.49;39.23;98892.03;4977168;28;19964;-78
2021/04/21 09:22:59;;;;;;;;;;;;;;;18.62;41.38;98893.16;4977007;28;19914;-78
2021/04/21 09:25:24;;;;;;;;;;;;;;;18.61;41.77;98881.22;4976775;28;22072;-77
2021/04/21 09:27:55;;;;;;;;;;;;;;;18.60;43.61;98881.69;4976879;28;20132;-77
2021/04/21 09:30:22;;;;;;;;;;;;;;;18.57;43.85;98877.81;4977326;28;19917;-78
2021/04/21 09:32:52;;;;;;;;;;;;;;;18.26;43.30;98877.59;4977214;28;20358;-79
2021/04/21 09:35:23;;;;;;;;;;;;;;;18.20;43.05;98876.72;4976680;28;20401;-79
2021/04/21 09:37:48;;;;;;;;;;;;;;;17.76;44.58;98877.50;4976860;28;20449;-78
2021/04/21 09:40:31;;;;;;;;;;;;;;;17.59;44.90;98876.41;4976805;28;19961;-78
2021/04/21 09:42:56;;;;;;;;;;;;;;;17.90;45.22;98881.56;4977147;28;19920;-79
2021/04/21 09:45:32;;;;;;;;;;;;;;;18.11;41.01;98885.97;4976872;28;19913;-78
2021/04/21 09:48:10;;;;;;;;;;;;;;;18.42;42.31;98890.28;4976722;28;19914;-78
2021/04/21 09:50:37;;;;;;;;;;;;;;;18.74;41.37;98889.28;4977109;28;19935;-78
2021/04/21 09:53:19;;;;;;;;;;;;;;;18.87;39.83;98883.31;4993562;28;19917;-78
2021/04/21 09:55:56;;;;;;;;;;;;;;;19.07;40.30;98880.53;4976477;28;19914;-78
2021/04/21 09:58:31;;;;;;;;;;;;;;;19.26;41.28;98895.03;4976479;28;19914;-77
2021/04/21 10:00:56;;;;;;;;;;;;;;;19.21;40.13;98896.53;4989425;28;19988;-77
2021/04/21 10:03:22;;;;;;;;;;;;;;;18.86;41.09;98898.59;4975501;28;20382;-77
2021/04/21 10:05:56;;;;;;;;;;;;;;;18.65;44.44;98906.94;4975858;28;19914;-77
2021/04/21 10:08:24;;;;;;;;;;;;;;;17.62;44.24;98911.00;4975912;28;19918;-80
2021/04/21 10:11:00;;;;;;;;;;;;;;;17.41;46.98;98908.06;4975790;28;19968;-77
2021/04/21 10:13:26;;;;;;;;;;;;;;;16.63;49.95;98900.03;4975558;28;19985;-79
2021/04/21 10:15:52;;;;;;;;;;;;;;;16.45;49.26;98894.50;4976208;28;20381;-78
2021/04/21 10:18:17;;;;;;;;;;;;;;;16.22;48.75;98876.47;4975554;28;19964;-78
2021/04/21 10:20:44;;;;;;;;;;;;;;;15.80;47.64;98870.84;4975605;28;19914;-77
2021/04/21 10:23:12;;;;;;;;;;;;;;;14.99;48.83;98869.63;4975351;28;20321;-76
2021/04/21 10:25:38;;;;;;;;;;;;;;;14.74;51.07;98861.56;4975607;28;20378;-77
2021/04/21 10:28:03;;;;;;;;;;;;;;;14.88;47.76;98864.53;4983609;28;20056;-78
2021/04/21 10:30:29;;;;;;;;;;;;;;;14.63;48.37;98862.00;4995693;28;19914;-77
2021/04/21 10:32:54;;;;;;;;;;;;;;;14.65;48.94;98865.84;4995477;28;19921;-78
2021/04/21 10:35:20;;;;;;;;;;;;;;;14.65;49.13;98853.97;4995204;28;20022;-77
2021/04/21 10:37:45;;;;;;;;;;;;;;;14.57;48.15;98847.16;4995760;28;19914;-79
2021/04/21 10:40:11;;;;;;;;;;;;;;;15.01;50.18;98856.03;4995448;28;19918;-78
2021/04/21 10:43:12;;;;;;;;;;;;;;;15.49;50.21;98852.31;5012942;28;20020;-78
2021/04/21 10:45:48;;;;;;;;;;;;;;;16.09;47.89;98851.59;4920855;29;19922;-79
2021/04/21 10:48:33;;;;;;;;;;;;;;;16.56;48.28;98855.72;5003630;28;19913;-77
2021/04/21 10:50:58;;;;;;;;;;;;;;;16.81;45.56;98860.88;4998250;28;19965;-78
2021/04/21 10:53:44;;;;;;;;;;;;;;;17.00;41.59;98855.91;4998341;28;19956;-77
2021/04/21 10:56:19;;;;;;;;;;;;;;;17.70;41.28;98859.09;4998400;28;19913;-77
2021/04/21 10:58:51;;;;;;;;;;;;;;;16.88;39.93;98854.13;4998237;28;19929;-77
2021/04/21 11:01:28;;;;;;;;;;;;;;;17.68;41.89;98853.19;4997893;28;19921;-78
2021/04/21 11:03:53;;;;;;;;;;;;;;;17.98;37.76;98853.97;4998479;28;20015;-78
2021/04/21 11:06:46;;;;;;;;;;;;;;;17.69;36.84;98855.50;4998165;28;20015;-78
2021/04/21 11:09:13;;;;;;;;;;;;;;;19.14;37.30;98848.53;4991202;28;19918;-77
2021/04/21 11:11:40;;;;;;;;;;;;;;;19.71;37.30;98860.66;4994920;28;19935;-78
2021/04/21 11:14:05;;;;;;;;;;;;;;;19.73;34.27;98854.56;4995099;28;19914;-79
2021/04/21 11:16:31;;;;;;;;;;;;;;;19.40;35.78;98855.75;4995490;28;19920;-79
2021/04/21 11:19:16;;;;;;;;;;;;;;;19.69;36.25;98856.81;4994953;28;19913;-75
2021/04/21 11:21:41;;;;;;;;;;;;;;;20.01;35.32;98854.84;4984083;28;19914;-77
2021/04/21 11:24:07;;;;;;;;;;;;;;;19.40;34.75;98852.16;4995293;28;20353;-78
2021/04/21 11:26:33;;;;;;;;;;;;;;;19.24;32.37;98850.69;4995134;28;19992;-79
2021/04/21 11:29:00;;;;;;;;;;;;;;;19.52;35.44;98842.66;4995076;28;20019;-80
2021/04/21 11:31:41;;;;;;;;;;;;;;;19.47;34.56;98844.09;4994430;28;20358;-77
2021/04/21 11:34:26;;;;;;;;;;;;;;;18.78;35.04;98839.44;4994428;28;20016;-78
2021/04/21 11:36:53;;;;;;;;;;;;;;;18.49;36.39;98831.91;4994488;28;19914;-79
2021/04/21 11:39:37;;;;;;;;;;;;;;;18.43;35.98;98828.25;4989638;28;20449;-77
2021/04/21 11:42:21;;;;;;;;;;;;;;;18.04;36.39;98833.22;4989444;28;19988;-76
2021/04/21 11:44:50;;;;;;;;;;;;;;;17.36;36.92;98826.94;4986328;28;20044;-78
2021/04/21 11:47:28;;;;;;;;;;;;;;;17.42;34.64;98828.56;4994610;28;19914;-80
2021/04/21 11:50:00;;;;;;;;;;;;;;;17.98;36.16;98837.19;4994336;28;19944;-78
2021/04/21 11:52:44;;;;;;;;;;;;;;;18.08;35.54;98833.81;4995107;28;19914;-79
2021/04/21 11:55:30;;;;;;;;;;;;;;;18.12;37.88;98826.00;4994526;28;19989;-79
2021/04/21 11:57:56;;;;;;;;;;;;;;;18.18;35.28;98831.69;4986688;28;19913;-78
2021/04/21 12:00:23;;;;;;;;;;;;;;;18.45;34.67;98813.75;4994652;28;19913;-79
2021/04/21 12:02:48;;;;;;;;;;;;;;;18.28;35.70;98813.50;4975186;28;19921;-77
2021/04/21 12:05:19;;;;;;;;;;;;;;;18.15;34.69;98825.03;4975335;28;19914;-80
2021/04/21 12:07:48;;;;;;;;;;;;;;;18.50;34.91;98813.84;4975290;28;20371;-80
2021/04/21 12:10:16;;;;;;;;;;;;;;;18.82;33.82;98806.41;4975388;28;19933;-80
2021/04/21 12:12:41;;;;;;;;;;;;;;;19.22;35.12;98808.44;4975174;28;19914;-77
2021/04/21 12:15:07;;;;;;;;;;;;;;;19.37;35.54;98813.91;4975181;28;20437;-77
2021/04/21 12:17:33;;;;;;;;;;;;;;;19.72;37.21;98805.34;4983832;28;20437;-77
2021/04/21 12:19:59;;;;;;;;;;;;;;;19.39;37.62;98800.97;4993817;28;19917;-77
2021/04/21 12:22:41;;;;;;;;;;;;;;;19.69;35.34;98800.75;4992633;28;19924;-77
2021/04/21 12:25:07;;;;;;;;;;;;;;;19.40;31.03;98799.69;4992869;28;19945;-79
2021/04/21 12:27:34;;;;;;;;;;;;;;;19.21;35.43;98803.31;4993718;28;19918;-78
2021/04/21 12:30:15;;;;;;;;;;;;;;;19.40;35.18;98802.50;4993388;28;19914;-78
2021/04/21 12:32:41;;;;;;;;;;;;;;;19.24;35.02;98796.69;4994124;28;20370;-79
2021/04/21 12:35:07;;;;;;;;;;;;;;;18.60;32.59;98795.69;4993672;28;19918;-77
2021/04/21 12:37:32;;;;;;;;;;;;;;;19.27;35.16;98793.69;4993647;28;19961;-77
2021/04/21 12:39:57;;;;;;;;;;;;;;;20.09;32.00;98794.19;4984649;28;20390;-76
2021/04/21 12:42:23;;;;;;;;;;;;;;;20.78;32.73;98787.25;4989557;28;19936;-77
2021/04/21 12:44:48;;;;;;;;;;;;;;;20.45;29.65;98792.66;4974122;28;19944;-77
2021/04/21 12:47:14;;;;;;;;;;;;;;;20.84;30.36;98787.25;4973972;28;19914;-79
2021/04/21 12:49:41;;;;;;;;;;;;;;;20.36;31.95;98792.88;4973407;28;19914;-80
2021/04/21 12:52:07;;;;;;;;;;;;;;;20.06;29.61;98787.56;4974795;28;19914;-80
2021/04/21 12:54:34;;;;;;;;;;;;;;;19.58;30.61;98793.03;4973747;28;19914;-80
2021/04/21 12:57:00;;;;;;;;;;;;;;;19.22;30.72;98794.41;4987819;28;19972;-79
2021/04/21 12:59:25;;;;;;;;;;;;;;;19.25;31.59;98803.84;4992711;28;20370;-78
2021/04/21 13:01:50;;;;;;;;;;;;;;;19.00;33.88;98817.31;4985841;28;20041;-78
2021/04/21 13:04:16;;;;;;;;;;;;;;;18.39;39.44;98819.28;4973252;28;19973;-79